createdAt,value
2022-09-12T00:01:37.819Z,100.00
2022-09-12T00:04:06.965Z,100.00
2022-09-12T00:06:37.830Z,100.00
2022-09-12T00:09:13.934Z,100.00
2022-09-12T00:11:46.963Z,100.00
2022-09-12T00:14:18.189Z,100.00
2022-09-12T00:16:47.031Z,100.00
2022-09-12T00:19:16.192Z,100.00
2022-09-12T00:21:44.975Z,100.00
2022-09-12T00:24:13.657Z,100.00
2022-09-12T00:26:42.559Z,100.00
2022-09-12T00:29:21.865Z,100.00
2022-09-12T00:31:50.478Z,100.00
2022-09-12T00:34:19.214Z,100.00
2022-09-12T00:36:47.837Z,100.00
2022-09-12T00:39:18.064Z,100.00
2022-09-12T00:41:46.973Z,100.00
2022-09-12T00:44:15.475Z,100.00
2022-09-12T00:46:48.053Z,100.00
2022-09-12T00:49:50.098Z,100.00
2022-09-12T00:52:26.767Z,100.00
2022-09-12T00:55:00.982Z,100.00
2022-09-12T00:57:45.962Z,100.00
2022-09-12T01:00:19.064Z,100.00
2022-09-12T01:02:53.282Z,100.00
2022-09-12T01:05:24.499Z,100.00
2022-09-12T01:07:55.220Z,100.00
2022-09-12T01:10:25.163Z,100.00
2022-09-12T01:12:54.242Z,100.00
2022-09-12T01:15:22.897Z,100.00
2022-09-12T01:18:10.256Z,100.00
2022-09-12T01:21:01.936Z,100.00
2022-09-12T01:24:05.975Z,100.00
2022-09-12T01:27:14.427Z,100.00
2022-09-12T01:30:23.242Z,100.00
2022-09-12T01:33:23.667Z,100.00
2022-09-12T01:36:03.105Z,100.00
2022-09-12T01:39:09.386Z,100.00
2022-09-12T01:41:50.537Z,100.00
2022-09-12T01:45:15.364Z,100.00
2022-09-12T01:47:53.610Z,100.00
2022-09-12T01:50:28.570Z,100.00
2022-09-12T01:53:26.693Z,100.00
2022-09-12T01:56:05.858Z,100.00
2022-09-12T01:58:47.273Z,100.00
2022-09-12T02:01:36.580Z,100.00
2022-09-12T02:04:33.995Z,100.00
2022-09-12T02:07:42.546Z,100.00
2022-09-12T02:10:22.321Z,100.00
2022-09-12T02:13:13.614Z,100.00
2022-09-12T02:15:52.987Z,100.00
2022-09-12T02:18:22.231Z,100.00
2022-09-12T02:20:51.987Z,100.00
2022-09-12T02:23:29.046Z,100.00
2022-09-12T02:26:05.009Z,100.00
2022-09-12T02:28:42.300Z,100.00
2022-09-12T02:31:25.953Z,100.00
2022-09-12T02:34:10.684Z,100.00
2022-09-12T02:37:19.155Z,100.00
2022-09-12T02:39:47.907Z,100.00
2022-09-12T02:42:16.695Z,100.00
2022-09-12T02:44:45.609Z,100.00
2022-09-12T02:47:30.336Z,100.00
2022-09-12T02:50:00.389Z,100.00
2022-09-12T02:52:30.098Z,100.00
2022-09-12T02:55:00.070Z,100.00
2022-09-12T02:57:28.898Z,100.00
2022-09-12T03:00:01.734Z,100.00
2022-09-12T03:03:16.546Z,100.00
2022-09-12T03:06:36.728Z,100.00
2022-09-12T03:09:44.858Z,100.00
2022-09-12T03:12:32.112Z,100.00
2022-09-12T03:15:04.393Z,100.00
2022-09-12T03:17:45.809Z,100.00
2022-09-12T03:20:47.613Z,100.00
2022-09-12T03:23:51.615Z,100.00
2022-09-12T03:26:31.402Z,100.00
2022-09-12T03:29:02.626Z,100.00
2022-09-12T03:31:32.103Z,100.00
2022-09-12T03:34:01.423Z,100.00
2022-09-12T03:36:30.960Z,100.00
2022-09-12T03:38:59.622Z,100.00
2022-09-12T03:41:28.240Z,100.00
2022-09-12T03:43:57.287Z,100.00
2022-09-12T03:46:26.043Z,100.00
2022-09-12T03:48:54.679Z,100.00
2022-09-12T03:51:23.311Z,100.00
2022-09-12T03:53:52.005Z,100.00
2022-09-12T03:56:21.213Z,100.00
2022-09-12T03:58:49.818Z,100.00
2022-09-12T04:01:20.505Z,100.00
2022-09-12T04:03:52.040Z,100.00
2022-09-12T04:06:23.235Z,100.00
2022-09-12T04:08:53.981Z,100.00
2022-09-12T04:11:24.315Z,100.00
2022-09-12T04:13:52.996Z,100.00
2022-09-12T04:16:21.818Z,100.00
2022-09-12T04:18:50.503Z,100.00
2022-09-12T04:21:22.387Z,100.00
2022-09-12T04:23:51.279Z,100.00
2022-09-12T04:26:21.033Z,100.00
2022-09-12T04:28:58.127Z,100.00
2022-09-12T04:31:27.322Z,100.00
2022-09-12T04:33:58.032Z,100.00
2022-09-12T04:36:28.666Z,100.00
2022-09-12T04:38:57.370Z,100.00
2022-09-12T04:41:32.055Z,100.00
2022-09-12T04:44:07.946Z,100.00
2022-09-12T04:46:42.319Z,100.00
2022-09-12T04:49:12.766Z,100.00
2022-09-12T04:51:43.346Z,100.00
2022-09-12T04:54:17.184Z,99.65
2022-09-12T04:56:49.754Z,99.07
2022-09-12T04:59:21.189Z,98.28
2022-09-12T05:01:50.640Z,94.36
2022-09-12T05:04:20.082Z,94.98
2022-09-12T05:06:49.076Z,92.52
2022-09-12T05:09:17.757Z,92.54
2022-09-12T05:14:35.619Z,92.13
2022-09-12T05:17:06.354Z,91.21
2022-09-12T05:19:35.244Z,91.37
2022-09-12T05:22:05.354Z,91.56
2022-09-12T05:24:34.299Z,89.49
2022-09-12T05:27:05.080Z,89.80
2022-09-12T05:29:34.394Z,88.14
2022-09-12T05:32:04.413Z,89.01
2022-09-12T05:34:33.206Z,89.20
2022-09-12T05:37:01.876Z,87.28
2022-09-12T05:39:31.187Z,86.65
2022-09-12T05:41:59.965Z,86.37
2022-09-12T05:44:28.802Z,86.44
2022-09-12T05:46:57.969Z,86.88
2022-09-12T05:49:27.167Z,86.45
2022-09-12T05:51:55.855Z,85.55
2022-09-12T05:54:28.304Z,85.66
2022-09-12T05:57:00.329Z,85.55
2022-09-12T05:59:28.828Z,86.12
2022-09-12T06:01:57.607Z,84.14
2022-09-12T06:04:28.186Z,83.35
2022-09-12T06:06:57.290Z,83.94
2022-09-12T06:09:25.865Z,80.89
2022-09-12T06:11:54.632Z,79.09
2022-09-12T06:14:23.359Z,76.58
2022-09-12T06:16:51.973Z,76.75
2022-09-12T06:19:23.399Z,77.56
2022-09-12T06:21:53.915Z,78.89
2022-09-12T06:24:23.153Z,79.50
2022-09-12T06:26:53.122Z,76.70
2022-09-12T06:29:22.740Z,75.82
2022-09-12T06:31:51.416Z,75.45
2022-09-12T06:34:20.308Z,76.21
2022-09-12T06:36:50.123Z,76.04
2022-09-12T06:39:23.526Z,75.69
2022-09-12T06:41:53.232Z,75.84
2022-09-12T06:44:32.062Z,75.92
2022-09-12T06:47:00.842Z,75.39
2022-09-12T06:49:29.633Z,75.12
2022-09-12T06:51:58.430Z,75.68
2022-09-12T06:54:27.416Z,74.02
2022-09-12T06:56:56.065Z,74.00
2022-09-12T06:59:25.182Z,70.69
2022-09-12T07:01:53.954Z,70.25
2022-09-12T07:04:22.992Z,68.72
2022-09-12T07:06:51.862Z,67.66
2022-09-12T07:09:20.760Z,67.33
2022-09-12T07:11:49.332Z,67.08
2022-09-12T07:14:17.931Z,68.05
2022-09-12T07:16:46.619Z,67.74
2022-09-12T07:19:15.431Z,68.29
2022-09-12T07:21:44.930Z,67.84
2022-09-12T07:24:13.624Z,67.37
2022-09-12T07:26:43.006Z,68.14
2022-09-12T07:32:07.125Z,68.46
2022-09-12T07:34:36.823Z,68.55
2022-09-12T07:37:06.497Z,67.79
2022-09-12T07:39:35.215Z,66.41
2022-09-12T07:42:04.046Z,66.23
2022-09-12T07:44:33.559Z,66.11
2022-09-12T07:47:02.949Z,65.29
2022-09-12T07:49:31.651Z,65.69
2022-09-12T07:52:00.299Z,64.90
2022-09-12T07:54:28.965Z,64.97
2022-09-12T07:56:57.700Z,64.33
2022-09-12T07:59:50.798Z,63.31
2022-09-12T08:02:17.594Z,63.83
2022-09-12T08:04:49.421Z,63.17
2022-09-12T08:07:19.481Z,62.56
2022-09-12T08:09:48.386Z,61.24
2022-09-12T08:12:18.242Z,62.08
2022-09-12T08:14:46.989Z,62.36
2022-09-12T08:17:15.660Z,61.92
2022-09-12T08:19:45.153Z,61.72
2022-09-12T08:22:13.891Z,61.68
2022-09-12T08:24:42.612Z,62.20
2022-09-12T08:27:11.291Z,62.44
2022-09-12T08:29:39.908Z,61.67
2022-09-12T08:32:09.205Z,62.00
2022-09-12T08:34:37.880Z,62.26
2022-09-12T08:37:06.593Z,61.98
2022-09-12T08:39:35.176Z,62.58
2022-09-12T08:42:06.894Z,63.10
2022-09-12T08:44:47.969Z,63.33
2022-09-12T08:47:37.678Z,63.48
2022-09-12T08:50:11.989Z,63.22
2022-09-12T08:53:03.810Z,62.40
2022-09-12T08:55:39.350Z,62.21
2022-09-12T08:58:17.304Z,61.79
2022-09-12T09:01:11.155Z,60.44
2022-09-12T09:04:25.679Z,61.61
2022-09-12T09:07:38.880Z,61.91
2022-09-12T09:10:14.178Z,62.18
2022-09-12T09:12:57.292Z,61.38
2022-09-12T09:16:04.022Z,60.76
2022-09-12T09:18:38.404Z,59.97
2022-09-12T09:21:51.015Z,59.87
2022-09-12T09:24:26.269Z,60.52
2022-09-12T09:27:29.838Z,60.21
2022-09-12T09:29:58.620Z,60.05
2022-09-12T09:32:35.015Z,59.31
2022-09-12T09:35:17.217Z,59.31
2022-09-12T09:37:58.892Z,59.42
2022-09-12T09:40:47.341Z,59.00
2022-09-12T09:43:24.692Z,59.18
2022-09-12T09:45:54.296Z,58.23
2022-09-12T09:48:38.106Z,58.29
2022-09-12T09:51:09.637Z,58.95
2022-09-12T09:54:13.298Z,58.57
2022-09-12T09:56:43.609Z,58.23
2022-09-12T09:59:30.071Z,58.71
2022-09-12T10:02:29.565Z,58.36
2022-09-12T10:04:59.595Z,57.29
2022-09-12T10:07:28.332Z,56.99
2022-09-12T10:10:23.183Z,57.05
2022-09-12T10:13:09.349Z,55.20
2022-09-12T10:15:38.711Z,54.85
2022-09-12T10:18:07.453Z,55.22
2022-09-12T10:20:42.987Z,54.25
2022-09-12T10:23:19.342Z,53.64
2022-09-12T10:25:55.144Z,52.92
2022-09-12T10:28:49.222Z,53.14
2022-09-12T10:31:29.674Z,52.49
2022-09-12T10:34:01.138Z,52.56
2022-09-12T10:36:39.449Z,53.18
2022-09-12T10:39:18.852Z,53.39
2022-09-12T10:41:47.553Z,53.83
2022-09-12T10:44:26.495Z,53.89
2022-09-12T10:46:57.763Z,54.41
2022-09-12T10:49:31.711Z,54.45
2022-09-12T10:52:27.586Z,55.38
2022-09-12T10:54:56.462Z,55.82
2022-09-12T10:58:18.700Z,55.43
2022-09-12T11:01:00.026Z,55.22
2022-09-12T11:03:52.593Z,54.47
2022-09-12T11:06:33.614Z,54.79
2022-09-12T11:09:26.420Z,54.24
2022-09-12T11:12:18.812Z,53.26
2022-09-12T11:15:29.883Z,53.64
2022-09-12T11:18:29.092Z,53.31
2022-09-12T11:21:23.722Z,54.15
2022-09-12T11:24:26.983Z,54.17
2022-09-12T11:27:26.960Z,53.18
2022-09-12T11:30:12.602Z,53.29
2022-09-12T11:33:01.756Z,53.11
2022-09-12T11:35:33.468Z,52.75
2022-09-12T11:39:13.079Z,51.94
2022-09-12T11:41:48.643Z,51.01
2022-09-12T11:44:33.396Z,49.93
2022-09-12T11:47:08.444Z,49.62
2022-09-12T11:49:44.310Z,49.99
2022-09-12T11:52:29.685Z,50.37
2022-09-12T11:55:26.275Z,50.77
2022-09-12T11:57:59.403Z,51.47
2022-09-12T12:00:56.370Z,52.61
2022-09-12T12:03:44.846Z,52.32
2022-09-12T12:06:34.031Z,51.73
2022-09-12T12:09:05.327Z,50.69
2022-09-12T12:11:39.253Z,50.42
2022-09-12T12:14:23.398Z,50.99
2022-09-12T12:16:52.523Z,51.19
2022-09-12T12:19:35.331Z,52.11
2022-09-12T12:22:25.413Z,52.69
2022-09-12T12:25:29.599Z,53.63
2022-09-12T12:28:06.581Z,53.69
2022-09-12T12:31:02.527Z,53.76
2022-09-12T12:33:31.130Z,54.03
2022-09-12T12:35:59.754Z,54.57
2022-09-12T12:38:34.198Z,54.83
2022-09-12T12:41:18.148Z,54.85
2022-09-12T12:43:56.482Z,55.35
2022-09-12T12:46:28.944Z,55.45
2022-09-12T12:49:10.952Z,54.70
2022-09-12T12:51:47.735Z,54.29
2022-09-12T12:54:41.327Z,53.08
2022-09-12T12:57:13.363Z,53.34
2022-09-12T13:00:09.246Z,53.61
2022-09-12T13:02:51.318Z,53.86
2022-09-12T13:05:24.732Z,53.90
2022-09-12T13:08:07.077Z,54.19
2022-09-12T13:10:36.297Z,53.77
2022-09-12T13:13:08.862Z,54.14
2022-09-12T13:15:38.081Z,53.73
2022-09-12T13:18:28.538Z,52.25
2022-09-12T13:21:18.875Z,51.52
2022-09-12T13:24:02.912Z,51.98
2022-09-12T13:26:43.286Z,52.17
2022-09-12T13:29:23.627Z,51.81
2022-09-12T13:31:59.585Z,50.25
2022-09-12T13:34:30.720Z,51.11
2022-09-12T13:37:49.716Z,51.69
2022-09-12T13:40:38.663Z,53.39
2022-09-12T13:43:23.667Z,53.69
2022-09-12T13:45:53.712Z,54.99
2022-09-12T13:48:26.124Z,55.91
2022-09-12T13:51:00.190Z,56.93
2022-09-12T13:53:47.653Z,57.31
2022-09-12T13:56:21.038Z,58.76
2022-09-12T13:58:55.096Z,58.49
2022-09-12T14:01:37.745Z,58.44
2022-09-12T14:04:45.905Z,58.84
2022-09-12T14:07:20.423Z,59.12
2022-09-12T14:10:00.080Z,59.14
2022-09-12T14:12:35.811Z,59.79
2022-09-12T14:15:05.740Z,59.56
2022-09-12T14:17:39.618Z,60.06
2022-09-12T14:20:16.703Z,60.37
2022-09-12T14:22:50.463Z,60.44
2022-09-12T14:25:25.427Z,61.35
2022-09-12T14:27:56.868Z,61.90
2022-09-12T14:30:37.074Z,62.19
2022-09-12T14:33:20.069Z,62.94
2022-09-12T14:36:10.395Z,63.65
2022-09-12T14:38:45.879Z,63.46
2022-09-12T14:41:27.170Z,63.76
2022-09-12T14:44:14.654Z,64.42
2022-09-12T14:46:45.061Z,64.51
2022-09-12T14:49:36.107Z,64.51
2022-09-12T14:52:08.484Z,64.75
2022-09-12T14:54:40.439Z,65.08
2022-09-12T14:57:40.715Z,64.96
2022-09-12T15:00:23.381Z,65.40
2022-09-12T15:02:53.434Z,65.47
2022-09-12T15:05:27.865Z,64.45
2022-09-12T15:08:02.264Z,63.98
2022-09-12T15:10:38.648Z,63.97
2022-09-12T15:13:10.257Z,64.27
2022-09-12T15:15:41.636Z,64.47
2022-09-12T15:18:10.560Z,65.47
2022-09-12T15:20:42.884Z,65.86
2022-09-12T15:23:19.362Z,66.02
2022-09-12T15:25:48.782Z,66.41
2022-09-12T15:28:24.176Z,67.10
2022-09-12T15:30:56.396Z,66.73
2022-09-12T15:33:25.736Z,66.59
2022-09-12T15:35:54.397Z,66.73
2022-09-12T15:38:26.500Z,66.18
2022-09-12T15:40:56.180Z,66.42
2022-09-12T15:43:26.605Z,65.87
2022-09-12T15:45:55.298Z,66.38
2022-09-12T15:48:24.328Z,66.25
2022-09-12T15:50:53.774Z,65.97
2022-09-12T15:53:23.259Z,65.57
2022-09-12T15:55:52.017Z,65.43
2022-09-12T15:58:20.854Z,65.53
2022-09-12T16:00:49.881Z,65.20
2022-09-12T16:03:25.979Z,64.72
2022-09-12T16:06:03.561Z,64.72
2022-09-12T16:08:32.531Z,65.37
2022-09-12T16:11:33.822Z,65.07
2022-09-12T16:14:03.991Z,65.15
2022-09-12T16:16:33.927Z,65.27
2022-09-12T16:19:07.779Z,65.21
2022-09-12T16:21:38.252Z,65.91
2022-09-12T16:24:07.219Z,65.92
2022-09-12T16:26:35.933Z,66.31
2022-09-12T16:29:04.791Z,66.73
2022-09-12T16:31:33.540Z,66.79
2022-09-12T16:34:02.330Z,66.94
2022-09-12T16:36:33.872Z,66.96
2022-09-12T16:39:22.118Z,67.58
2022-09-12T16:41:51.397Z,68.08
2022-09-12T16:44:20.213Z,68.58
2022-09-12T16:46:50.307Z,68.70
2022-09-12T16:49:29.784Z,68.52
2022-09-12T16:52:05.903Z,68.62
2022-09-12T16:54:37.017Z,68.25
2022-09-12T16:57:49.745Z,68.59
2022-09-12T17:00:23.464Z,68.77
2022-09-12T17:02:52.132Z,68.87
2022-09-12T17:05:21.645Z,69.51
2022-09-12T17:07:52.189Z,69.58
2022-09-12T17:10:21.118Z,69.60
2022-09-12T17:12:50.366Z,69.77
2022-09-12T17:15:20.958Z,70.29
2022-09-12T17:17:52.482Z,70.50
2022-09-12T17:20:21.174Z,70.26
2022-09-12T17:22:50.041Z,70.08
2022-09-12T17:25:19.182Z,69.14
2022-09-12T17:27:54.564Z,68.93
2022-09-12T17:30:23.368Z,68.53
2022-09-12T17:32:52.741Z,69.02
2022-09-12T17:35:21.606Z,68.79
2022-09-12T17:37:50.310Z,68.84
2022-09-12T17:40:48.786Z,68.88
2022-09-12T17:43:15.788Z,69.32
2022-09-12T17:45:44.592Z,69.58
2022-09-12T17:48:13.336Z,69.46
2022-09-12T17:50:41.970Z,69.64
2022-09-12T17:53:11.216Z,69.66
2022-09-12T17:55:41.092Z,70.06
2022-09-12T17:58:10.034Z,70.26
2022-09-12T18:00:57.794Z,70.22
2022-09-12T18:03:27.926Z,70.92
2022-09-12T18:05:57.438Z,70.70
2022-09-12T18:08:26.188Z,70.84
2022-09-12T18:10:54.866Z,71.10
2022-09-12T18:13:23.471Z,70.99
2022-09-12T18:15:52.118Z,71.05
2022-09-12T18:18:21.172Z,71.22
2022-09-12T18:20:52.913Z,71.19
2022-09-12T18:23:21.617Z,71.24
2022-09-12T18:25:50.225Z,71.36
2022-09-12T18:28:19.117Z,71.33
2022-09-12T18:30:47.817Z,71.47
2022-09-12T18:33:18.813Z,71.62
2022-09-12T18:35:50.765Z,71.58
2022-09-12T18:38:19.380Z,71.38
2022-09-12T18:40:48.130Z,71.53
2022-09-12T18:43:16.827Z,71.43
2022-09-12T18:45:45.519Z,71.67
2022-09-12T18:48:14.343Z,71.64
2022-09-12T18:50:42.977Z,71.60
2022-09-12T18:53:11.753Z,71.80
2022-09-12T18:55:42.614Z,72.01
2022-09-12T18:58:11.401Z,71.44
2022-09-12T19:00:41.198Z,71.70
2022-09-12T19:03:13.002Z,72.10
2022-09-12T19:05:41.814Z,72.11
2022-09-12T19:08:10.639Z,72.19
2022-09-12T19:10:39.247Z,72.23
2022-09-12T19:13:07.988Z,72.37
2022-09-12T19:15:40.708Z,72.56
2022-09-12T19:18:09.740Z,72.55
2022-09-12T19:20:38.525Z,72.83
2022-09-12T19:23:07.247Z,72.73
2022-09-12T19:25:36.223Z,72.27
2022-09-12T19:28:04.905Z,72.47
2022-09-12T19:30:33.727Z,72.63
2022-09-12T19:33:03.308Z,72.39
2022-09-12T19:35:33.647Z,72.42
2022-09-12T19:38:02.223Z,72.41
2022-09-12T19:40:31.413Z,72.48
2022-09-12T19:43:00.026Z,72.39
2022-09-12T19:45:28.658Z,72.78
2022-09-12T19:47:57.300Z,73.06
2022-09-12T19:50:26.442Z,72.98
2022-09-12T19:52:55.147Z,73.21
2022-09-12T19:55:23.933Z,73.40
2022-09-12T19:57:52.609Z,73.72
2022-09-12T20:00:21.751Z,73.74
2022-09-12T20:02:52.235Z,73.98
2022-09-12T20:05:21.357Z,74.03
2022-09-12T20:07:50.038Z,74.37
2022-09-12T20:10:18.740Z,74.53
2022-09-12T20:12:47.485Z,74.48
2022-09-12T20:15:16.577Z,74.32
2022-09-12T20:17:45.285Z,74.55
2022-09-12T20:20:13.973Z,74.60
2022-09-12T20:22:42.893Z,74.78
2022-09-12T20:25:11.688Z,74.68
2022-09-12T20:27:40.262Z,74.87
2022-09-12T20:30:10.359Z,74.78
2022-09-12T20:32:39.071Z,74.81
2022-09-12T20:35:08.980Z,74.65
2022-09-12T20:37:40.230Z,74.59
2022-09-12T20:40:09.861Z,74.57
2022-09-12T20:42:38.517Z,74.97
2022-09-12T20:45:07.741Z,74.64
2022-09-12T20:47:36.829Z,74.56
2022-09-12T20:50:06.608Z,74.73
2022-09-12T20:52:35.213Z,74.73
2022-09-12T20:55:04.296Z,75.00
2022-09-12T20:57:32.893Z,74.72
2022-09-12T21:00:01.506Z,74.84
2022-09-12T21:02:30.304Z,74.83
2022-09-12T21:04:59.411Z,74.87
2022-09-12T21:07:28.750Z,75.09
2022-09-12T21:09:57.618Z,74.95
2022-09-12T21:12:28.672Z,75.21
2022-09-12T21:14:57.429Z,75.07
2022-09-12T21:17:26.354Z,75.18
2022-09-12T21:19:55.155Z,75.40
2022-09-12T21:22:23.898Z,75.41
2022-09-12T21:24:52.908Z,75.49
2022-09-12T21:27:21.724Z,75.32
2022-09-12T21:29:50.821Z,75.66
2022-09-12T21:32:19.610Z,75.56
2022-09-12T21:34:49.433Z,75.56
2022-09-12T21:37:18.148Z,75.51
2022-09-12T21:39:47.181Z,75.54
2022-09-12T21:42:17.431Z,75.49
2022-09-12T21:44:46.632Z,75.29
2022-09-12T21:47:15.327Z,75.46
2022-09-12T21:49:44.105Z,75.42
2022-09-12T21:52:12.990Z,75.15
2022-09-12T21:54:41.778Z,75.09
2022-09-12T21:57:10.683Z,75.30
2022-09-12T21:59:39.366Z,75.14
2022-09-12T22:02:09.011Z,75.13
2022-09-12T22:04:37.872Z,74.99
2022-09-12T22:07:07.567Z,74.90
2022-09-12T22:09:36.211Z,75.12
2022-09-12T22:12:05.052Z,75.31
2022-09-12T22:14:34.141Z,75.19
2022-09-12T22:17:03.436Z,75.31
2022-09-12T22:19:32.955Z,75.33
2022-09-12T22:22:19.960Z,75.13
2022-09-12T22:24:48.763Z,75.15
2022-09-12T22:27:18.156Z,75.31
2022-09-12T22:29:49.980Z,75.06
2022-09-12T22:32:21.550Z,75.02
2022-09-12T22:34:50.255Z,75.29
2022-09-12T22:37:19.053Z,75.32
2022-09-12T22:39:47.872Z,75.21
2022-09-12T22:42:16.552Z,75.30
2022-09-12T22:44:45.323Z,75.43
2022-09-12T22:47:14.303Z,75.53
2022-09-12T22:49:43.107Z,75.77
2022-09-12T22:52:11.785Z,76.01
2022-09-12T22:54:40.580Z,76.30
2022-09-12T22:57:09.676Z,76.42
2022-09-12T22:59:38.661Z,75.84
2022-09-12T23:02:07.357Z,76.11
2022-09-12T23:04:36.154Z,76.00
2022-09-12T23:07:05.447Z,76.22
2022-09-12T23:09:35.515Z,76.33
2022-09-12T23:12:05.172Z,76.46
2022-09-12T23:14:33.862Z,76.66
2022-09-12T23:17:02.560Z,77.02
2022-09-12T23:19:31.341Z,77.35
2022-09-12T23:22:00.022Z,77.33
2022-09-12T23:24:28.932Z,77.14
2022-09-12T23:26:57.910Z,77.32
2022-09-12T23:29:27.672Z,77.69
2022-09-12T23:31:56.403Z,77.42
2022-09-12T23:34:25.150Z,77.59
2022-09-12T23:36:56.546Z,78.04
2022-09-12T23:39:25.521Z,78.12
2022-09-12T23:41:54.572Z,78.34
2022-09-12T23:44:23.321Z,78.47
2022-09-12T23:46:52.004Z,78.51
2022-09-12T23:49:21.316Z,78.69
2022-09-12T23:51:50.000Z,78.60
2022-09-12T23:54:18.790Z,78.99
2022-09-12T23:56:47.467Z,79.02
2022-09-12T23:59:16.268Z,79.03
